Time;durP1;ratioP1;P1;durP2;ratioP2;P2;SDS_P1;SDS_P2;PMS_P1;PMS_P2;Temp;Humidity;BMP_temperature;BMP_pressure;BME280_temperature;BME280_humidity;BME280_pressure;Samples;Min_cycle;Max_cycle;Signal;HPM_P1;HPM_P2
2022/12/22 03:26:48;;;;;;;29.30;16.70;;;;;;;3.29;86.19;99331.73;209790;1295;218441;-63
2022/12/22 03:31:53;;;;;;;26.30;15.50;;;;;;;3.24;86.03;99325.17;210007;1287;140094;-64
2022/12/22 03:36:58;;;;;;;31.00;18.40;;;;;;;3.29;86.01;99310.17;210426;1302;140112;-64
2022/12/22 03:47:27;;;;;;;29.10;17.00;;;;;;;3.30;86.27;99299.10;210482;1294;140174;-65
2022/12/22 03:52:31;;;;;;;23.40;14.70;;;;;;;3.35;85.89;99295.59;210408;1287;141850;-64
2022/12/22 03:57:35;;;;;;;28.10;18.00;;;;;;;3.37;85.82;99292.09;208787;1293;153038;-64
2022/12/22 04:02:38;;;;;;;22.30;17.00;;;;;;;3.33;85.90;99284.56;209239;1293;140118;-64
2022/12/22 04:07:44;;;;;;;27.90;15.80;;;;;;;3.29;85.94;99279.73;209722;1294;140878;-64
2022/12/22 04:12:53;;;;;;;26.50;15.80;;;;;;;3.32;85.88;99276.09;209223;1294;140426;-64
2022/12/22 04:17:59;;;;;;;26.10;15.20;;;;;;;3.32;85.88;99269.48;209601;1287;139801;-64
2022/12/22 04:23:05;;;;;;;26.80;15.20;;;;;;;3.28;85.95;99256.50;208989;1294;139449;-64
2022/12/22 04:28:10;;;;;;;20.50;13.90;;;;;;;3.25;85.89;99259.45;208767;1294;138965;-64
2022/12/22 04:33:13;;;;;;;26.50;16.00;;;;;;;3.26;85.93;99260.14;208554;1285;140032;-64
2022/12/22 04:38:18;;;;;;;25.30;15.80;;;;;;;3.24;86.05;99261.31;208573;1287;153595;-64
2022/12/22 04:43:23;;;;;;;28.90;15.30;;;;;;;3.23;86.29;99251.42;208568;1279;139692;-64
2022/12/22 04:48:29;;;;;;;22.20;14.20;;;;;;;3.17;85.99;99248.48;208457;1294;140640;-63
2022/12/22 04:53:32;;;;;;;25.80;16.50;;;;;;;3.18;86.02;99252.73;209313;1287;140673;-62
2022/12/22 04:58:36;;;;;;;25.00;15.30;;;;;;;3.19;86.14;99255.90;208747;1287;155052;-62
2022/12/22 05:03:40;;;;;;;27.60;14.60;;;;;;;3.15;86.01;99245.11;209197;1287;140362;-65
2022/12/22 05:08:45;;;;;;;29.40;16.10;;;;;;;3.13;86.03;99244.62;209151;1298;143020;-64
2022/12/22 05:13:50;;;;;;;26.80;16.10;;;;;;;3.13;85.97;99258.64;209733;1295;140740;-62
2022/12/22 05:18:54;;;;;;;25.10;15.10;;;;;;;3.17;86.18;99250.06;208893;1287;140549;-64
2022/12/22 05:23:59;;;;;;;29.20;15.30;;;;;;;3.19;86.08;99247.20;209576;1287;140667;-64
2022/12/22 05:29:03;;;;;;;26.10;14.00;;;;;;;3.20;86.02;99239.09;209936;1293;141558;-63
2022/12/22 05:34:07;;;;;;;28.10;16.30;;;;;;;3.24;86.17;99239.55;210114;1295;141614;-63
2022/12/22 05:39:12;;;;;;;27.20;15.00;;;;;;;3.22;86.30;99248.77;210019;1295;140790;-62
2022/12/22 05:44:15;;;;;;;26.90;14.00;;;;;;;3.22;86.14;99244.00;210510;1294;141899;-66
2022/12/22 05:49:20;;;;;;;23.20;14.20;;;;;;;3.26;85.98;99241.34;210343;1294;142027;-63
2022/12/22 05:54:26;;;;;;;24.20;14.40;;;;;;;3.26;86.00;99249.04;209966;1301;139923;-62
2022/12/22 05:59:31;;;;;;;22.40;14.40;;;;;;;3.29;86.34;99250.30;210087;1288;140155;-62
2022/12/22 06:04:36;;;;;;;20.00;13.30;;;;;;;3.30;86.13;99249.70;209465;1293;140673;-64
2022/12/22 06:09:41;;;;;;;20.00;12.90;;;;;;;3.33;86.05;99246.88;208885;1288;140651;-63
2022/12/22 06:14:44;;;;;;;24.20;14.10;;;;;;;3.33;86.22;99241.77;208224;1294;139836;-63
2022/12/22 06:19:49;;;;;;;23.90;12.60;;;;;;;3.32;86.23;99245.40;207997;1287;140031;-62
2022/12/22 06:24:54;;;;;;;26.00;15.60;;;;;;;3.25;86.13;99240.36;209215;1293;140866;-63
2022/12/22 06:29:59;;;;;;;26.10;15.00;;;;;;;3.22;86.13;99238.21;208052;1281;140072;-62
2022/12/22 06:35:06;;;;;;;23.70;13.80;;;;;;;3.14;86.14;99248.31;208528;1294;140195;-63
2022/12/22 06:40:11;;;;;;;22.70;13.10;;;;;;;3.16;86.35;99239.16;208968;1290;139547;-62
2022/12/22 06:45:17;;;;;;;21.40;13.10;;;;;;;3.19;86.19;99233.66;207632;1287;140713;-64
2022/12/22 06:50:21;;;;;;;31.60;16.20;;;;;;;3.16;86.22;99217.60;209024;1280;714948;-64
2022/12/22 06:55:27;;;;;;;21.10;14.60;;;;;;;3.09;86.24;99219.54;208588;1294;139419;-64
2022/12/22 07:00:33;;;;;;;25.70;13.60;;;;;;;3.01;86.00;99226.86;209407;1287;139682;-64
2022/12/22 07:05:38;;;;;;;29.40;16.50;;;;;;;3.00;86.06;99229.65;208031;1294;140344;-62
2022/12/22 07:10:58;;;;;;;24.20;15.50;;;;;;;2.90;85.71;99230.34;209082;1295;139853;-63
2022/12/22 07:16:06;;;;;;;23.60;15.60;;;;;;;2.85;86.33;99226.63;209395;1280;139290;-63
2022/12/22 07:21:13;;;;;;;28.30;16.90;;;;;;;2.86;86.35;99224.93;209858;1295;141177;-63
2022/12/22 07:26:18;;;;;;;29.90;14.90;;;;;;;2.93;86.49;99224.48;210502;1302;143325;-63
2022/12/22 07:31:22;;;;;;;25.40;15.30;;;;;;;3.04;86.67;99224.19;210368;1295;139816;-63
2022/12/22 07:36:27;;;;;;;18.20;9.80;;;;;;;3.15;86.69;99220.56;210470;1294;139111;-64
2022/12/22 07:46:56;;;;;;;23.70;15.30;;;;;;;3.15;85.94;99196.73;210453;1295;236054;-64
2022/12/22 07:52:01;;;;;;;16.90;12.30;;;;;;;3.17;86.23;99188.59;210422;1282;139833;-63
2022/12/22 07:57:08;;;;;;;25.50;15.90;;;;;;;3.25;86.40;99186.02;207800;1284;140681;-62
2022/12/22 08:02:12;;;;;;;23.50;13.00;;;;;;;3.37;86.46;99183.48;209292;1294;140881;-67
2022/12/22 08:07:16;;;;;;;23.40;14.30;;;;;;;3.44;86.35;99177.27;209545;1289;140301;-66
2022/12/22 08:12:21;;;;;;;21.80;12.10;;;;;;;3.51;86.43;99176.86;208744;1294;140842;-63
2022/12/22 08:17:27;;;;;;;22.30;15.50;;;;;;;3.47;85.88;99174.44;207905;1287;141840;-64
2022/12/22 08:22:31;;;;;;;23.70;13.50;;;;;;;3.53;85.96;99169.21;208792;1288;139678;-66
2022/12/22 08:27:43;;;;;;;25.20;14.30;;;;;;;3.61;86.21;99166.51;209126;1288;140995;-64
2022/12/22 08:32:49;;;;;;;27.60;16.20;;;;;;;3.67;86.26;99163.48;208237;1280;139616;-63
2022/12/22 08:37:53;;;;;;;26.30;16.70;;;;;;;3.81;86.28;99159.05;207622;1288;141740;-66
2022/12/22 08:43:01;;;;;;;25.90;17.20;;;;;;;3.89;86.28;99156.37;208828;1293;140004;-65
2022/12/22 08:48:05;;;;;;;34.50;16.90;;;;;;;3.89;86.04;99148.10;209015;1288;139932;-66
2022/12/22 08:53:10;;;;;;;22.40;14.70;;;;;;;3.87;85.96;99147.17;208282;1287;141796;-67
2022/12/22 08:58:34;;;;;;;23.80;16.40;;;;;;;3.93;86.05;99144.45;209144;1294;141667;-66
2022/12/22 09:03:37;;;;;;;25.30;15.60;;;;;;;3.95;85.95;99135.15;209560;1288;139856;-66
2022/12/22 09:08:41;;;;;;;23.80;14.10;;;;;;;3.94;85.94;99128.38;209352;1294;139913;-66
2022/12/22 09:13:45;;;;;;;196.20;97.20;;;;;;;4.02;86.28;99128.26;208125;1295;139887;-65
2022/12/22 09:18:50;;;;;;;31.50;17.30;;;;;;;4.19;86.22;99126.63;209385;1281;141256;-63
2022/12/22 09:23:54;;;;;;;20.60;14.50;;;;;;;4.22;85.74;99117.16;210199;1294;141195;-66
2022/12/22 09:28:58;;;;;;;27.70;17.70;;;;;;;4.28;85.75;99101.80;210436;1298;141936;-65
2022/12/22 09:34:02;;;;;;;25.70;13.30;;;;;;;4.38;85.83;99087.25;210412;1293;139931;-67
2022/12/22 09:39:07;;;;;;;23.00;13.90;;;;;;;4.49;85.65;99071.09;210183;1288;151329;-67
2022/12/22 09:44:44;;;;;;;25.70;15.90;;;;;;;4.69;85.48;99057.19;210250;1277;141128;-67
2022/12/22 09:49:50;;;;;;;24.20;16.50;;;;;;;4.73;85.03;99047.88;209437;1294;140776;-66
2022/12/22 09:54:55;;;;;;;18.20;10.90;;;;;;;4.92;85.19;99044.69;209336;1297;141100;-66
2022/12/22 10:00:15;;;;;;;25.90;16.10;;;;;;;4.98;84.72;99034.27;208546;1287;140429;-66
2022/12/22 10:05:44;;;;;;;28.60;17.40;;;;;;;4.95;84.59;99025.23;209632;1294;140334;-68
2022/12/22 10:10:54;;;;;;;28.80;19.60;;;;;;;4.98;84.75;99016.63;208220;1281;139538;-66
2022/12/22 10:15:59;;;;;;;22.20;15.40;;;;;;;5.05;84.82;99004.23;208579;1294;140284;-65
2022/12/22 10:21:14;;;;;;;22.00;13.30;;;;;;;5.02;84.68;98987.76;207914;1289;141251;-66
2022/12/22 10:26:31;;;;;;;24.40;17.30;;;;;;;5.05;84.62;98974.20;208781;1296;140184;-67
2022/12/22 10:31:53;;;;;;;25.00;16.30;;;;;;;5.07;84.83;98967.52;209681;1274;140070;-64
2022/12/22 10:37:02;;;;;;;34.40;19.50;;;;;;;5.14;84.87;98970.11;208742;1298;140805;-64
2022/12/22 10:42:12;;;;;;;21.50;13.30;;;;;;;5.30;84.57;98965.38;207606;1288;141008;-63
2022/12/22 10:47:22;;;;;;;25.90;17.90;;;;;;;5.42;84.63;98965.70;209083;1297;140625;-67
2022/12/22 10:52:30;;;;;;;27.50;18.70;;;;;;;5.46;84.45;98963.71;207695;1289;139914;-66
2022/12/22 10:57:36;;;;;;;30.30;18.30;;;;;;;5.44;84.30;98953.61;208751;1296;140723;-66
2022/12/22 11:02:50;;;;;;;23.50;14.30;;;;;;;5.35;84.07;98941.61;207360;1287;142556;-66
2022/12/22 11:07:59;;;;;;;22.90;14.60;;;;;;;5.26;83.86;98931.34;208168;1291;141098;-66
2022/12/22 11:13:17;;;;;;;32.60;19.30;;;;;;;5.23;84.16;98931.25;209300;1298;140266;-65
2022/12/22 11:18:52;;;;;;;31.00;18.10;;;;;;;5.25;83.97;98926.77;207396;1288;140160;-65
2022/12/22 11:24:12;;;;;;;27.20;17.30;;;;;;;5.29;84.14;98920.62;210118;1295;235424;-66
2022/12/22 11:29:33;;;;;;;26.40;17.60;;;;;;;5.42;84.59;98916.30;209758;1304;142551;-65
2022/12/22 11:34:50;;;;;;;37.70;18.20;;;;;;;5.54;84.24;98917.60;207971;1297;140421;-65
2022/12/22 11:40:27;;;;;;;26.10;16.70;;;;;;;5.58;84.48;98910.23;209658;1297;139891;-65
2022/12/22 11:45:44;;;;;;;24.30;16.70;;;;;;;5.66;84.04;98910.39;209349;1297;140249;-65
2022/12/22 11:50:53;;;;;;;23.50;16.70;;;;;;;5.66;83.84;98905.05;209213;1298;140807;-65
2022/12/22 11:56:18;;;;;;;23.60;17.50;;;;;;;5.59;83.50;98899.41;209643;1298;221839;-66
2022/12/22 12:01:26;;;;;;;19.30;12.50;;;;;;;5.59;83.24;98886.18;207516;1297;141867;-65
2022/12/22 12:06:50;;;;;;;25.10;17.30;;;;;;;5.55;83.38;98881.84;207809;1300;140275;-66
2022/12/22 12:12:12;;;;;;;31.30;18.40;;;;;;;5.57;83.75;98886.24;207032;1298;143245;-65
2022/12/22 12:17:35;;;;;;;27.10;17.70;;;;;;;5.63;83.45;98879.21;209040;1295;141343;-65
2022/12/22 12:22:46;;;;;;;32.60;15.90;;;;;;;5.60;83.49;98874.63;208144;1296;141058;-65
2022/12/22 12:28:09;;;;;;;26.80;16.00;;;;;;;5.56;83.12;98857.39;207698;1298;140877;-65
2022/12/22 12:33:27;;;;;;;26.80;17.00;;;;;;;5.49;83.05;98853.92;208694;1294;141059;-64
2022/12/22 12:38:39;;;;;;;20.40;13.80;;;;;;;5.43;83.22;98836.91;208391;1300;139883;-65
2022/12/22 12:44:04;;;;;;;29.70;16.00;;;;;;;5.39;83.17;98850.17;207668;1298;245532;-65
2022/12/22 12:49:35;;;;;;;27.90;17.50;;;;;;;5.37;83.40;98851.39;207930;1288;141314;-64
2022/12/22 12:54:46;;;;;;;26.40;15.70;;;;;;;5.43;83.18;98852.45;209268;1294;236730;-65
2022/12/22 12:59:53;;;;;;;26.40;14.90;;;;;;;5.43;83.59;98854.20;208581;1296;140555;-65
2022/12/22 13:05:25;;;;;;;26.50;15.90;;;;;;;5.50;83.14;98844.59;208800;1298;140004;-65
2022/12/22 13:10:31;;;;;;;20.80;14.00;;;;;;;5.54;83.27;98837.36;209535;1290;140110;-65
2022/12/22 13:15:38;;;;;;;25.30;16.60;;;;;;;5.46;83.05;98823.66;209335;1287;141184;-65
2022/12/22 13:20:44;;;;;;;25.10;15.80;;;;;;;5.37;82.80;98822.23;209813;1297;141392;-66
2022/12/22 13:25:53;;;;;;;26.10;16.30;;;;;;;5.29;82.58;98817.16;210295;1296;140472;-66
2022/12/22 13:31:21;;;;;;;29.60;18.10;;;;;;;5.24;83.08;98816.40;210384;1305;140733;-66
2022/12/22 13:36:27;;;;;;;30.10;17.40;;;;;;;5.26;83.34;98805.61;209775;1300;141536;-66
2022/12/22 13:41:33;;;;;;;28.00;17.90;;;;;;;5.22;83.28;98803.50;209843;1298;139733;-66
2022/12/22 13:46:37;;;;;;;28.20;16.30;;;;;;;5.23;83.43;98799.88;209482;1293;139587;-65
2022/12/22 13:51:41;;;;;;;24.80;15.30;;;;;;;5.20;83.30;98804.03;208739;1297;140542;-66
2022/12/22 13:56:49;;;;;;;18.50;13.10;;;;;;;5.13;82.98;98807.45;209778;1297;141140;-64
2022/12/22 14:01:59;;;;;;;28.00;16.00;;;;;;;5.00;82.88;98804.59;208336;1296;142846;-66
2022/12/22 14:07:14;;;;;;;21.70;14.30;;;;;;;4.95;83.13;98803.66;208682;1294;143498;-65
2022/12/22 14:12:40;;;;;;;24.50;14.10;;;;;;;4.88;83.23;98793.44;208066;1296;139844;-65
2022/12/22 14:17:45;;;;;;;29.10;14.80;;;;;;;4.85;83.34;98795.36;208199;1288;141534;-65
2022/12/22 14:23:02;;;;;;;22.50;15.00;;;;;;;4.83;83.20;98789.65;208615;1287;140560;-65
2022/12/22 14:28:15;;;;;;;22.10;15.60;;;;;;;4.74;83.38;98779.59;208115;1288;139482;-65
2022/12/22 14:33:31;;;;;;;24.10;16.90;;;;;;;4.66;83.70;98769.60;208178;1287;141403;-65
2022/12/22 14:38:42;;;;;;;19.20;13.00;;;;;;;4.68;83.91;98768.60;207791;1293;143561;-65
2022/12/22 14:43:48;;;;;;;22.60;15.20;;;;;;;4.68;83.97;98767.30;208592;1295;142303;-65
2022/12/22 14:48:57;;;;;;;22.00;12.90;;;;;;;4.73;84.06;98758.89;209400;1297;238110;-67
2022/12/22 14:54:01;;;;;;;20.10;12.40;;;;;;;4.74;84.01;98749.09;209719;1289;140537;-66
2022/12/22 14:59:21;;;;;;;20.50;13.70;;;;;;;4.73;84.08;98754.82;208717;1294;139465;-66
2022/12/22 15:04:27;;;;;;;18.50;11.70;;;;;;;4.74;83.94;98753.05;209361;1295;140152;-65
2022/12/22 15:09:31;;;;;;;21.40;13.50;;;;;;;4.78;84.22;98749.48;210274;1295;140621;-65
2022/12/22 15:14:56;;;;;;;16.20;11.00;;;;;;;4.83;84.38;98751.79;209591;1300;140397;-66
2022/12/22 15:20:00;;;;;;;19.70;13.70;;;;;;;4.90;84.46;98749.05;210042;1295;140391;-66
2022/12/22 15:25:13;;;;;;;17.80;11.80;;;;;;;4.97;84.45;98754.00;209413;1296;140069;-65
2022/12/22 15:30:20;;;;;;;19.90;11.90;;;;;;;5.01;83.97;98751.88;209209;1280;141243;-65
2022/12/22 15:35:33;;;;;;;18.50;11.90;;;;;;;5.01;84.27;98750.13;208994;1291;140076;-66
2022/12/22 15:40:36;;;;;;;20.00;13.40;;;;;;;5.02;84.37;98742.31;208625;1290;139695;-65
2022/12/22 15:45:41;;;;;;;15.80;10.90;;;;;;;5.05;84.10;98748.05;209445;1303;140158;-66
2022/12/22 15:50:45;;;;;;;17.90;11.70;;;;;;;5.11;84.27;98748.63;209092;1303;140028;-64
2022/12/22 15:55:53;;;;;;;8.10;6.90;;;;;;;5.11;84.23;98743.23;207958;1288;140530;-65
2022/12/22 16:00:58;;;;;;;20.30;12.80;;;;;;;5.09;83.93;98743.30;208602;1296;139814;-65
2022/12/22 16:06:05;;;;;;;22.20;12.20;;;;;;;5.13;84.20;98738.61;207886;1290;141430;-65
2022/12/22 16:11:09;;;;;;;22.30;10.70;;;;;;;5.15;84.38;98737.77;208713;1288;140746;-65
2022/12/22 16:16:16;;;;;;;18.20;11.30;;;;;;;5.14;84.35;98735.92;208533;1290;139878;-65
2022/12/22 16:21:29;;;;;;;16.30;11.50;;;;;;;5.12;84.17;98730.33;207681;1296;139474;-66
2022/12/22 16:26:33;;;;;;;16.80;11.70;;;;;;;5.12;84.10;98731.96;208236;1288;139975;-65
2022/12/22 16:31:39;;;;;;;15.70;10.70;;;;;;;5.10;84.33;98732.35;208080;1296;141220;-65
2022/12/22 16:36:43;;;;;;;19.90;11.40;;;;;;;5.04;83.91;98735.30;208717;1297;140600;-64
2022/12/22 16:41:47;;;;;;;18.40;11.70;;;;;;;5.03;84.33;98731.26;209272;1298;141080;-65
2022/12/22 16:47:04;;;;;;;18.20;10.60;;;;;;;5.04;84.39;98725.15;208846;1291;235785;-65
2022/12/22 16:52:36;;;;;;;19.10;11.20;;;;;;;5.05;84.27;98727.20;208804;1288;142362;-65
2022/12/22 16:57:41;;;;;;;13.10;10.40;;;;;;;5.07;84.41;98727.79;208916;1293;140369;-65
2022/12/22 17:03:04;;;;;;;9.10;6.60;;;;;;;5.09;84.43;98720.17;208665;1294;140059;-65
2022/12/22 17:08:20;;;;;;;17.10;11.20;;;;;;;5.12;84.55;98717.16;209924;1297;140672;-65
2022/12/22 17:13:24;;;;;;;16.00;10.60;;;;;;;5.17;84.56;98715.11;210345;1295;140448;-65
2022/12/22 17:18:30;;;;;;;14.30;10.30;;;;;;;5.21;84.54;98708.73;210382;1280;140521;-65
2022/12/22 17:23:39;;;;;;;15.90;10.00;;;;;;;5.20;84.16;98707.86;210297;1297;140705;-65
2022/12/22 17:28:43;;;;;;;16.40;10.30;;;;;;;5.21;84.08;98704.14;209260;1301;141157;-65
2022/12/22 17:33:48;;;;;;;15.40;10.30;;;;;;;5.21;84.30;98699.76;209373;1289;140411;-65
2022/12/22 17:38:53;;;;;;;17.20;11.20;;;;;;;5.18;84.29;98697.10;208731;1296;140891;-64
2022/12/22 17:43:58;;;;;;;20.60;11.00;;;;;;;5.19;84.25;98695.08;208812;1288;140290;-65
2022/12/22 17:49:04;;;;;;;13.50;10.20;;;;;;;5.18;84.15;98695.10;208576;1288;151233;-64
2022/12/22 17:54:26;;;;;;;18.70;11.10;;;;;;;5.13;84.29;98699.92;207431;1298;139666;-65
2022/12/22 17:59:30;;;;;;;15.00;10.30;;;;;;;5.13;84.74;98696.55;208310;1288;140447;-64
2022/12/22 18:04:36;;;;;;;17.00;10.00;;;;;;;5.12;84.35;98691.48;207987;1294;140446;-65
2022/12/22 18:09:41;;;;;;;19.40;11.50;;;;;;;5.13;84.83;98682.86;208159;1291;141634;-65
2022/12/22 18:14:48;;;;;;;21.60;11.90;;;;;;;5.14;84.94;98681.09;207769;1296;140742;-65
2022/12/22 18:19:54;;;;;;;20.90;11.20;;;;;;;5.17;84.57;98686.94;207742;1294;140106;-64
2022/12/22 18:24:59;;;;;;;20.40;13.20;;;;;;;5.21;85.01;98683.64;208979;1296;153990;-65
2022/12/22 18:30:16;;;;;;;18.20;10.60;;;;;;;5.23;84.81;98680.29;208558;1297;140136;-65
2022/12/22 18:35:25;;;;;;;20.90;12.00;;;;;;;5.22;84.96;98675.63;208220;1296;141329;-67
2022/12/22 18:40:36;;;;;;;22.80;12.00;;;;;;;5.21;84.78;98678.04;207811;1296;140505;-64
2022/12/22 18:45:41;;;;;;;19.50;10.50;;;;;;;5.26;84.86;98678.83;210182;1295;142302;-65
2022/12/22 18:50:48;;;;;;;19.20;12.50;;;;;;;5.27;85.32;98676.02;208361;1297;1323331;-66
2022/12/22 18:55:56;;;;;;;19.60;12.90;;;;;;;5.30;85.22;98672.14;209518;1287;140359;-65
2022/12/22 19:01:02;;;;;;;14.70;11.40;;;;;;;5.32;85.48;98671.09;208091;1296;140288;-67
2022/12/22 19:06:09;;;;;;;18.00;12.60;;;;;;;5.33;85.64;98671.20;207817;1294;141789;-68
2022/12/22 19:11:16;;;;;;;19.20;11.90;;;;;;;5.27;85.42;98671.65;210182;1288;139965;-67
2022/12/22 19:16:25;;;;;;;22.30;15.60;;;;;;;5.24;85.57;98663.69;210164;1290;140644;-67
2022/12/22 19:21:30;;;;;;;17.20;12.00;;;;;;;5.23;85.87;98659.96;209605;1280;140591;-67
2022/12/22 19:26:39;;;;;;;20.70;12.40;;;;;;;5.21;85.75;98662.91;208315;1296;140417;-65
2022/12/22 19:31:48;;;;;;;21.60;13.00;;;;;;;5.23;85.82;98657.32;209961;1295;140919;-65
2022/12/22 19:36:54;;;;;;;24.70;13.00;;;;;;;5.24;85.99;98652.80;208761;1297;140062;-65
2022/12/22 19:42:02;;;;;;;13.10;7.80;;;;;;;5.24;85.97;98656.33;208279;1297;142093;-67
2022/12/22 19:47:16;;;;;;;20.10;11.40;;;;;;;5.22;86.56;98657.25;208660;1297;141409;-64
2022/12/22 19:52:21;;;;;;;24.60;12.30;;;;;;;5.23;86.73;98650.98;208289;1288;139834;-64
2022/12/22 19:57:25;;;;;;;21.00;11.80;;;;;;;5.27;86.55;98645.96;208723;1287;140388;-65
2022/12/22 20:02:32;;;;;;;18.00;11.80;;;;;;;5.33;86.84;98647.99;208243;1297;139894;-65
2022/12/22 20:07:36;;;;;;;24.50;13.80;;;;;;;5.34;86.90;98650.14;208485;1297;139865;-65
2022/12/22 20:12:45;;;;;;;18.60;11.60;;;;;;;5.35;86.69;98654.88;207770;1296;139719;-65
2022/12/22 20:17:54;;;;;;;19.10;11.80;;;;;;;5.39;86.78;98655.83;208621;1304;141056;-65
2022/12/22 20:23:03;;;;;;;19.20;11.80;;;;;;;5.42;86.93;98657.74;208200;1296;141118;-64
2022/12/22 20:28:23;;;;;;;20.40;12.20;;;;;;;5.41;87.07;98657.41;209273;1287;140276;-66
2022/12/22 20:33:28;;;;;;;19.90;11.10;;;;;;;5.48;87.08;98656.10;208032;1297;139616;-65
2022/12/22 20:38:40;;;;;;;17.80;12.20;;;;;;;5.48;87.16;98652.52;208698;1298;141351;-64
2022/12/22 20:43:45;;;;;;;16.70;11.90;;;;;;;5.48;87.31;98656.84;208178;1294;139543;-67
2022/12/22 20:48:56;;;;;;;19.20;11.50;;;;;;;5.46;87.27;98654.95;208464;1287;139185;-66
2022/12/22 20:54:01;;;;;;;92.80;38.60;;;;;;;5.51;87.19;98660.23;207269;1296;142016;-67
2022/12/22 20:59:13;;;;;;;21.60;13.30;;;;;;;5.52;87.61;98663.37;209210;1297;141471;-68
2022/12/22 21:04:18;;;;;;;20.40;13.50;;;;;;;5.50;87.90;98667.61;210353;1287;141556;-68
2022/12/22 21:09:23;;;;;;;14.30;9.00;;;;;;;5.53;87.37;98672.05;209201;1297;140133;-68
2022/12/22 21:14:28;;;;;;;14.70;10.90;;;;;;;5.56;87.52;98673.60;209993;1296;139866;-71
2022/12/22 21:19:36;;;;;;;16.90;11.50;;;;;;;5.58;87.91;98679.27;208955;1296;142146;-62
2022/12/22 21:24:43;;;;;;;19.30;10.80;;;;;;;5.62;88.13;98670.91;207684;1290;140236;-64
2022/12/22 21:29:49;;;;;;;17.10;11.50;;;;;;;5.67;87.85;98673.67;209058;1281;140212;-63
2022/12/22 21:34:55;;;;;;;20.80;11.50;;;;;;;5.68;87.94;98675.92;208109;1296;140383;-67
2022/12/22 21:40:21;;;;;;;16.30;10.20;;;;;;;5.70;87.91;98678.27;208092;1273;139946;-67
2022/12/22 21:45:30;;;;;;;15.30;10.70;;;;;;;5.75;87.85;98680.27;208156;1288;140545;-67
2022/12/22 21:50:34;;;;;;;16.90;11.10;;;;;;;5.72;87.78;98679.73;206995;1280;139465;-65
2022/12/22 21:55:39;;;;;;;21.20;11.50;;;;;;;5.70;87.89;98679.32;207652;1290;140255;-65
2022/12/22 22:00:47;;;;;;;20.20;12.80;;;;;;;5.70;88.02;98687.02;208137;1288;140944;-65
2022/12/22 22:05:57;;;;;;;17.00;11.50;;;;;;;5.69;88.14;98688.95;208464;1297;140430;-63
2022/12/22 22:11:01;;;;;;;21.20;11.70;;;;;;;5.68;88.27;98690.42;208093;1296;139592;-67
2022/12/22 22:16:08;;;;;;;16.00;11.50;;;;;;;5.69;88.13;98689.21;208622;1293;141241;-63
2022/12/22 22:21:14;;;;;;;16.50;11.80;;;;;;;5.66;88.20;98697.03;208615;1291;139987;-64
2022/12/22 22:26:18;;;;;;;16.00;11.30;;;;;;;5.67;88.52;98704.30;208537;1297;139383;-67
2022/12/22 22:31:23;;;;;;;17.70;12.50;;;;;;;5.74;88.37;98706.31;208608;1288;140470;-68
2022/12/22 22:36:28;;;;;;;19.80;12.10;;;;;;;5.74;88.77;98705.86;208963;1291;140536;-64
2022/12/22 22:41:33;;;;;;;17.60;12.30;;;;;;;5.74;88.83;98711.19;208823;1297;139803;-67
2022/12/22 22:46:48;;;;;;;19.00;11.90;;;;;;;5.84;88.89;98709.80;208633;1288;225463;-68
2022/12/22 22:51:54;;;;;;;16.00;11.80;;;;;;;5.87;88.72;98714.27;210102;1294;140451;-65
2022/12/22 22:56:58;;;;;;;18.00;11.60;;;;;;;5.87;88.87;98713.33;209957;1297;139022;-66
2022/12/22 23:02:02;;;;;;;19.20;11.70;;;;;;;5.93;88.84;98713.17;209991;1297;141683;-66
2022/12/22 23:07:07;;;;;;;15.20;10.50;;;;;;;5.96;88.45;98702.46;208091;1296;141919;-64
2022/12/22 23:12:12;;;;;;;19.50;13.00;;;;;;;5.94;88.80;98706.12;210160;1303;140932;-66
2022/12/22 23:17:18;;;;;;;28.40;16.80;;;;;;;5.94;88.68;98710.84;207906;1297;139282;-66
2022/12/22 23:22:22;;;;;;;19.50;13.10;;;;;;;5.98;88.50;98709.11;208237;1280;140493;-65
2022/12/22 23:27:26;;;;;;;20.00;12.90;;;;;;;5.96;88.48;98711.30;208965;1296;140427;-64
2022/12/22 23:32:30;;;;;;;17.30;14.10;;;;;;;5.95;88.84;98716.73;207618;1297;139374;-67
2022/12/22 23:37:35;;;;;;;15.60;11.40;;;;;;;5.98;88.85;98726.16;208435;1280;140123;-64
2022/12/22 23:42:40;;;;;;;20.20;13.20;;;;;;;6.03;88.76;98731.45;208295;1291;140093;-65
2022/12/22 23:47:45;;;;;;;22.10;14.70;;;;;;;6.03;89.17;98729.78;207878;1296;139683;-68
2022/12/22 23:52:51;;;;;;;22.20;14.50;;;;;;;6.04;88.89;98725.77;207764;1297;141396;-69
2022/12/22 23:57:56;;;;;;;21.60;14.20;;;;;;;6.09;88.71;98725.45;207172;1283;141550;-68
